MAPA DE AEROPUERTO

INFORMACIÓN METAR y TAF

METAR FOR LESO
ADDS - METARS form results

(1713 UTC 27 February 2020)
Data provider http://aviationweather.gov/metar/data/
 
METAR text: LESO 271700Z VRB09KT 9000 -RA SCT011 BKN015 13/11 Q1020
Conditions at: LESO (SAN SEBASTIAN/FU, ES) observed 1700 UTC 27 February 2020
Temperature: 13.0°C (55°F)
Dewpoint: 11.0°C (52°F) [RH = 88%]
Pressure (altimeter): 30.12 inches Hg (1020.0 mb)
Winds: variable direction winds at 10 MPH (9 knots; 4.6 m/s)
Visibility: 6 miles ( 9 km)
Ceiling: 1500 feet AGL
Clouds: scattered clouds at 1100 feet AGL
broken clouds at 1500 feet AGL
Weather: -RA  (light rain)

METAR text: LESO 271630Z 23010KT 190V290 9999 4000S -RA SCT010 BKN017 12/11 Q1020
Conditions at: LESO (SAN SEBASTIAN/FU, ES) observed 1630 UTC 27 February 2020
Temperature: 12.0°C (54°F)
Dewpoint: 11.0°C (52°F) [RH = 94%]
Pressure (altimeter): 30.12 inches Hg (1020.0 mb)
Winds: from the SW (230 degrees) at 12 MPH (10 knots; 5.1 m/s)
Visibility: 6 or more miles (10+ km)
Ceiling: 1700 feet AGL
Clouds: scattered clouds at 1000 feet AGL
broken clouds at 1700 feet AGL
Weather: -RA  (light rain)

Forecast for: AMD
Text: TAF AMD LESO 271440Z 2714/2812 26012KT 6000 -RA BKN015 TX13/2812Z TN11/2806Z
Forecast period: 1400 UTC 27 February 2020 to 1200 UTC 28 February 2020
Forecast type: FROM: standard forecast or significant change
Winds: from the W (260 degrees) at 14 MPH (12 knots; 6.2 m/s)
Visibility: 4 miles (6 km)
Ceiling: 1500 feet AGL
Clouds: broken clouds at 1500 feet AGL
Weather: -RA  (light rain)
Text: TEMPO 2714/2721 26015G30KT
Forecast period: 1400 to 2100 UTC 27 February 2020
Forecast type: TEMPORARY: The following changes expected for less than half the time period
Winds: from the W (260 degrees) at 17 MPH (15 knots; 7.7 m/s)
gusting to 34 MPH (30 knots; 15.4 m/s)
Visibility: missing
Ceiling: unknown
Clouds: missing
Weather: no significant weather forecast for this period
Text: TEMPO 2714/2724 3000 RA BKN008
Forecast period: 1400 UTC 27 February 2020 to 0000 UTC 28 February 2020
Forecast type: TEMPORARY: The following changes expected for less than half the time period
Visibility: 1.86 miles (2.99 km)
Ceiling: 800 feet AGL
Clouds: broken clouds at 800 feet AGL
Weather: RA  (moderate rain)
Text: TEMPO 2714/2724 1400 RA BKN005
Forecast period: 1400 UTC 27 February 2020 to 0000 UTC 28 February 2020
Forecast type: TEMPORARY: The following changes expected for less than half the time period
Visibility: 0.87 miles (1.40 km)
Ceiling: 500 feet AGL
Clouds: broken clouds at 500 feet AGL
Weather: RA  (moderate rain)